Las Vegas, Nevada (DRI) Weather observations

Data are for observation ending at time listed.
 Day   Time    Ave.   Ave.  Ave.  Vector   Max.   Stn.    Total    Solar   Ave.  
  of    of     Air    Rel.  Wind   Wind    Wind   Baro.  Precip.   Rad.    Soil  
Year   Day     Temp.  Hum.  Speed  Dir.    Gust   Pres.                    Temp. 
2016   (PST)    F      %     mph   deg.    mph     mb.     in.     W/m2     F   
------------------------------------------------------------------------------
 123   20:10   75.3    23    1.7    33      2.9   945.2    0.00       0    78.3
 123   20:20   74.9    24    1.4    19      2.9   945.3    0.00       0    78.3
 123   20:30   74.6    24    1.9    18      4.5   945.4    0.00       0    78.2
 123   20:40   74.4    24    1.7    23      2.8   945.5    0.00       0    78.1
 123   20:50   74.1    24    1.0    21      2.1   945.6    0.00       0    78.0
 123   21:00   73.8    25    1.2    16      2.2   945.6    0.00       0    78.0
 123   21:10   73.5    25    1.4    27      2.2   945.6    0.00       0    77.9
 123   21:20   73.3    26    1.5    32      3.3   945.6    0.00       0    77.8
 123   21:30   73.0    26    1.8    40      3.1   945.7    0.00       0    77.7
 123   21:40   72.6    27    1.3    22      2.9   945.7    0.00       0    77.6
 123   21:50   72.2    27    1.6   356      2.5   945.7    0.00       0    77.5
 123   22:00   71.8    27    0.9    15      2.0   945.7    0.00       0    77.4
 123   22:10   71.7    28    0.9    16      2.0   945.7    0.00       0    77.3
 123   22:20   71.5    28    0.6   348      3.1   945.7    0.00       0    77.3
 123   22:30   71.6    27    1.1     1      3.4   945.7    0.00       0    77.1
 123   22:40   71.5    27    1.0     5      2.5   945.8    0.00       0    77.0
 123   22:50   71.5    27    1.5    26      3.0   945.8    0.00       0    76.9
 123   23:00   71.3    27    1.8    26      3.2   945.8    0.00       0    76.8
 123   23:10   70.8    28    2.0    25      4.2   945.8    0.00       0    76.7
 123   23:20   71.0    27    2.2    19      4.2   945.9    0.00       0    76.6
 123   23:30   70.8    28    0.6    29      2.2   945.9    0.00       0    76.5
 123   23:40   70.6    28    1.2    10      2.9   945.9    0.00       0    76.4
 123   23:50   70.3    28    0.4     6      2.0   945.8    0.00       0    76.4
 124    0:00   69.9    29    0.4     3      1.8   945.8    0.00       0    76.3
 124    0:10   69.6    29    0.6    20      1.9   945.7    0.00       0    76.2
 124    0:20   69.3    30    0.5    16      3.1   945.7    0.00       0    76.1
 124    0:30   69.0    30    1.1    11      4.4   945.7    0.00       0    76.0
 124    0:40   69.0    30    1.7    26      3.6   945.7    0.00       0    75.9
 124    0:50   69.0    30    3.0    24      4.6   945.7    0.00       0    75.8
 124    1:00   68.9    30    2.8    28      5.1   945.7    0.00       0    75.7
 124    1:10   68.6    30    1.4    31      3.4   945.7    0.00       0    75.6
 124    1:20   68.5    31    1.3    25      2.9   945.6    0.00       0    75.5
 124    1:30   68.2    31    0.6    14      2.0   945.5    0.00       0    75.5
 124    1:40   67.8    32    0.0     8      1.8   945.6    0.00       0    75.4
 124    1:50   67.6    32    0.2     7      1.5   945.6    0.00       0    75.3
 124    2:00   66.6    36    0.0     8      0.5   945.6    0.00       0    75.2
 124    2:10   65.2    39    0.0     8      0.1   945.6    0.00       0    75.1
 124    2:20   64.8    39    0.0     0      0.0   945.7    0.00       0    75.0
 124    2:30   64.6    39    0.0     0      0.0   945.7    0.00       0    74.9
 124    2:40   64.8    38    0.0     0      0.0   945.7    0.00       0    74.8
 124    2:50   65.2    38    0.0     8      0.4   945.7    0.00       0    74.7
 124    3:00   65.3    38    0.0     0      0.0   945.7    0.00       0    74.6
 124    3:10   64.9    40    0.0     0      0.0   945.8    0.00       0    74.6
 124    3:20   64.6    40    0.0     0      0.0   945.9    0.00       0    74.5
 124    3:30   64.8    38    0.1     4      1.5   946.0    0.00       0    74.4
 124    3:40   65.3    38    0.6   360      1.9   946.1    0.00       0    74.3
 124    3:50   65.0    38    0.7     4      2.8   946.2    0.00       0    74.2
 124    4:00   64.5    39    0.0     9      0.9   946.2    0.00       0    74.1
 124    4:10   64.4    39    0.2   357      1.5   946.3    0.00       0    74.0
 124    4:20   64.3    39    0.3   322      2.3   946.3    0.00       0    73.9
 124    4:30   64.5    38    0.5   358      2.0   946.3    0.00       0    73.8
 124    4:40   64.1    40    0.6     8      1.8   946.3    0.00       3    73.8
 124    4:50   63.7    40    0.3    18      1.4   946.5    0.00       4    73.7
 124    5:00   63.7    40    0.1     4      1.2   946.7    0.00       9    73.6
 124    5:10   64.0    40    0.2     5      0.9   946.8    0.00      17    73.5
 124    5:20   64.5    40    0.0     0      0.0   946.9    0.00      25    73.4
 124    5:30   64.3    41    0.0     0      0.0   946.9    0.00      31    73.3
 124    5:40   65.0    39    0.0     6      0.9   947.0    0.00      25    73.2
 124    5:50   65.1    40    0.0     0      0.0   947.2    0.00      25    73.1
 124    6:00   65.4    40    0.1    11      0.7   947.3    0.00      34    73.0
 124    6:10   66.5    39    0.0    16      0.2   947.4    0.00      29    72.9
 124    6:20   66.5    37    0.0    16      0.6   947.4    0.00      38    72.8
 124    6:30   66.7    36    0.1   172      2.0   947.5    0.00      37    72.7
 124    6:40   67.2    35    0.0   116      0.3   947.5    0.00      32    72.6
 124    6:50   67.5    34    0.3   156      1.9   947.6    0.00      32    72.6
 124    7:00   67.8    34    0.0    86      0.7   947.7    0.00      34    72.5
 124    7:10   68.2    33    0.1    69      1.6   947.7    0.00      37    72.4
 124    7:20   68.6    33    0.4   183      2.5   947.7    0.00      39    72.4
 124    7:30   69.0    33    1.2    42      4.7   947.7    0.00      45    72.3
 124    7:40   69.7    32    2.2    55      5.1   947.7    0.00      53    72.3
 124    7:50   70.6    31    2.0    55      5.5   947.8    0.00      92    72.2
 124    8:00   70.9    30    3.2    44      7.3   947.8    0.00     140    72.1
 124    8:10   71.2    31    3.0    43      6.3   947.7    0.00     254    72.1
 124    8:20   71.7    30    3.0    56      6.1   947.7    0.00     166    72.0
 124    8:30   71.9    29    4.4    55     10.2   947.6    0.00     390    72.0
 124    8:40   72.5    28    4.8    55     11.6   947.6    0.00     650    71.9
 124    8:50   73.3    28    4.5    54      9.1   947.6    0.00     789    71.9
 124    9:00   73.4    27    5.2    60     10.4   947.6    0.00     820    71.8
 124    9:10   74.2    26    4.3    52      8.3   947.6    0.00     848    71.8
 124    9:20   74.9    25    4.5    52      8.2   947.5    0.00     874    71.7
 124    9:30   75.2    25    5.1    50      9.6   947.5    0.00     900    71.7
 124    9:40   75.7    25    5.4    36     10.5   947.5    0.00     923    71.7
 124    9:50   75.9    24    5.2    38     10.2   947.3    0.00     945    71.6
 124   10:00   76.5    24    5.0    51     11.6   947.3    0.00     963    71.7
 124   10:10   76.8    24    4.2    46     10.1   947.4    0.00     982    71.6
 124   10:20   76.7    23    4.2    44      8.8   947.4    0.00     999    71.6
 124   10:30   76.9    23    4.9    53     10.4   947.2    0.00    1015    71.7
 124   10:40   77.5    22    4.8    41     11.0   947.0    0.00    1030    71.7
 124   10:50   78.0    21    3.4    46      9.8   946.9    0.00    1041    71.8
 124   11:00   78.0    21    4.1    45      8.0   946.8    0.00    1050    71.9
 124   11:10   78.6    20    2.7    48      8.6   946.5    0.00    1058    72.0
 124   11:20   78.9    20    4.0    29      9.3   946.4    0.00    1064    72.1
 124   11:30   79.3    20    3.4    44      7.4   946.3    0.00    1070    72.3
 124   11:40   80.2    20    1.8    51      5.0   946.3    0.00    1071    72.4
 124   11:50   80.1    20    2.5   182      9.3   946.1    0.00    1071    72.6
 124   12:00   80.7    19    3.1    64     11.1   945.9    0.00    1071    72.8
 124   12:10   80.5    20    2.9    42      7.2   945.8    0.00    1068    73.0
 124   12:20   80.7    19    2.2    52      6.6   945.7    0.00    1063    73.3
 124   12:30   82.0    18    2.6    27      6.6   945.5    0.00    1054    73.6
 124   12:40   81.4    19    2.5    14      5.2   945.4    0.00    1045    73.8
 124   12:50   82.2    16    3.8    27      9.0   945.3    0.00    1040    74.1
 124   13:00   83.2    16    2.1    23      5.7   945.3    0.00    1027    74.3
 124   13:10   82.8    17    2.2   153      4.6   945.1    0.00    1013    74.6
 124   13:20   82.7    17    3.2    47      8.6   945.0    0.00     998    74.9
 124   13:30   83.3    15    2.2    41      5.4   944.8    0.00     985    75.1
 124   13:40   83.8    15    2.4   319      6.4   944.7    0.00     960    75.4
 124   13:50   84.1    15    4.3    15      9.3   944.4    0.00     931    75.7
 124   14:00   84.0    14    3.1    38      7.5   944.3    0.00     900    76.0
 124   14:10   84.6    14    2.5    71      8.0   944.2    0.00     885    76.3
 124   14:20   83.9    14    3.2    41      7.4   944.1    0.00     871    76.5
 124   14:30   84.7    14    1.7    62      5.4   943.9    0.00     821    76.8
 124   14:40   84.8    14    3.2    18      5.6   943.9    0.00     785    77.1
 124   14:50   85.6    13    2.2    16      5.9   943.7    0.00     782    77.4
 124   15:00   85.9    13    1.7   272      6.8   943.6    0.00     746    77.7
 124   15:10   86.0    12    1.9    36      5.0   943.5    0.00     715    78.0
 124   15:20   87.0    12    1.3   206      4.4   943.3    0.00     661    78.3
 124   15:30   86.5    12    2.5    30      6.9   943.2    0.00     640    78.5
 124   15:40   85.5    12    3.7    48      7.1   943.2    0.00     612    78.8
 124   15:50   84.5    13    4.2    50      8.2   943.0    0.00     573    79.1
 124   16:00   85.7    12    1.9    40      4.7   942.9    0.00     539    79.3
 124   16:10   86.2    12    1.6   250      5.2   942.9    0.00     505    79.5
 124   16:20   87.5    12    0.9   238      3.6   942.7    0.00     468    79.8
 124   16:30   87.4    12    2.1   252      5.4   942.7    0.00     429    80.0
 124   16:40   86.0    13    3.3   213      6.4   942.5    0.00     335    80.2
 124   16:50   85.3    13    2.0   261      5.1   942.4    0.00     221    80.3
 124   17:00   85.3    13    1.7    17      4.1   942.4    0.00     187    80.5
 124   17:10   85.2    13    1.6   328      4.2   942.3    0.00     160    80.6
 124   17:20   85.5    13    1.9   305      5.1   942.2    0.00     157    80.8
 124   17:30   85.7    13    1.4   325      3.4   942.2    0.00     143    80.9
 124   17:40   84.8    13    2.3   318      5.3   942.2    0.00     106    81.0
 124   17:50   84.3    13    1.2   321      3.9   942.2    0.00      76    81.1
 124   18:00   84.2    13    1.4   316      3.9   942.3    0.00      54    81.2
 124   18:10   83.8    14    1.5   333      3.3   942.2    0.00      35    81.3
 124   18:20   83.5    14    1.1   333      3.4   942.2    0.00      19    81.3
 124   18:30   83.2    14    1.3   310      5.0   942.2    0.00       7    81.3
 124   18:40   82.9    14    1.0   313      3.4   942.2    0.00       3    81.4
 124   18:50   82.8    14    1.0   337      3.4   942.2    0.00       3    81.4
 124   19:00   82.4    14    0.8   299      3.1   942.2    0.00       2    81.4
 124   19:10   82.1    14    1.1   313      3.4   942.3    0.00       1    81.4
 124   19:20   82.0    14    1.1   318      3.5   942.3    0.00       1    81.4
 124   19:30   81.9    14    1.0   314      4.1   942.4    0.00       1    81.3
 124   19:40   81.8    14    0.8   313      2.9   942.5    0.00       1    81.3
 124   19:50   81.6    14    0.8   303      2.3   942.6    0.00       1    81.2
 124   20:00   81.5    14    0.9   305      3.7   942.6    0.00       1    81.2

Return to Las Vegas, Nevada graphs page.


Western Regional Climate Center,wrcc@dri.edu